Time;durP1;ratioP1;P1;durP2;ratioP2;P2;SDS_P1;SDS_P2;PMS_P1;PMS_P2;Temp;Humidity;BMP_temperature;BMP_pressure;BME280_temperature;BME280_humidity;BME280_pressure;Samples;Min_cycle;Max_cycle;Signal;HPM_P1;HPM_P2
2021/05/14 00:01:38;;;;;;;2.40;1.50;;;;;;;;;;5134790;27;20652;-68
2021/05/14 00:04:04;;;;;;;3.50;1.88;;;;;;;;;;5135746;27;20055;-68
2021/05/14 00:06:30;;;;;;;4.03;1.63;;;;;;;;;;5141361;27;20043;-68
2021/05/14 00:08:57;;;;;;;2.42;1.45;;;;;;;;;;5156094;27;20077;-68
2021/05/14 00:11:23;;;;;;;3.92;1.83;;;;;;;;;;5146017;27;20043;-68
2021/05/14 00:13:53;;;;;;;2.40;1.30;;;;;;;;;;5136029;27;20078;-68
2021/05/14 00:16:20;;;;;;;2.88;1.30;;;;;;;;;;5135692;27;20039;-68
2021/05/14 00:18:46;;;;;;;2.72;1.75;;;;;;;;;;5135604;27;20051;-68
2021/05/14 00:21:12;;;;;;;4.00;1.63;;;;;;;;;;5134748;27;20059;-68
2021/05/14 00:23:38;;;;;;;2.97;1.83;;;;;;;;;;5135657;27;20051;-68
2021/05/14 00:26:05;;;;;;;5.43;1.70;;;;;;;;;;5134578;27;20078;-68
2021/05/14 00:28:31;;;;;;;3.42;1.48;;;;;;;;;;5135240;27;20287;-68
2021/05/14 00:30:57;;;;;;;4.40;1.67;;;;;;;;;;5134607;27;20049;-68
2021/05/14 00:33:23;;;;;;;6.63;1.95;;;;;;;;;;5135882;27;20142;-68
2021/05/14 00:35:49;;;;;;;3.05;1.70;;;;;;;;;;5136934;27;20051;-68
2021/05/14 00:38:15;;;;;;;3.67;1.63;;;;;;;;;;5156132;27;20058;-68
2021/05/14 00:40:41;;;;;;;2.53;1.67;;;;;;;;;;5155538;27;20126;-68
2021/05/14 00:43:08;;;;;;;3.58;1.27;;;;;;;;;;5135280;27;20075;-68
2021/05/14 00:45:34;;;;;;;3.30;1.40;;;;;;;;;;5135304;27;20051;-68
2021/05/14 00:48:00;;;;;;;2.65;1.52;;;;;;;;;;5135418;27;20054;-68
2021/05/14 00:50:26;;;;;;;3.28;1.83;;;;;;;;;;5134903;27;20082;-68
2021/05/14 00:52:52;;;;;;;2.95;1.70;;;;;;;;;;5134281;27;20051;-68
2021/05/14 00:55:18;;;;;;;2.55;1.40;;;;;;;;;;5135317;27;20400;-68
2021/05/14 00:57:44;;;;;;;3.55;2.03;;;;;;;;;;5134984;27;20134;-68
2021/05/14 01:00:13;;;;;;;3.13;1.42;;;;;;;;;;5134916;27;20051;-68
2021/05/14 01:02:39;;;;;;;3.50;2.00;;;;;;;;;;5133841;27;20058;-68
2021/05/14 01:05:06;;;;;;;3.47;1.77;;;;;;;;;;5134705;27;20047;-68
2021/05/14 01:07:32;;;;;;;3.65;1.73;;;;;;;;;;5135240;27;20446;-68
2021/05/14 01:09:58;;;;;;;2.75;1.40;;;;;;;;;;5134696;27;20051;-68
2021/05/14 01:12:24;;;;;;;3.22;1.50;;;;;;;;;;5133516;27;20054;-68
2021/05/14 01:14:50;;;;;;;4.07;1.65;;;;;;;;;;5134435;27;20218;-68
2021/05/14 01:17:17;;;;;;;6.10;1.60;;;;;;;;;;5134999;27;20155;-68
2021/05/14 01:19:42;;;;;;;3.83;1.70;;;;;;;;;;5134337;27;20533;-68
2021/05/14 01:22:09;;;;;;;3.78;1.88;;;;;;;;;;5133984;27;20047;-68
2021/05/14 01:24:35;;;;;;;5.35;1.65;;;;;;;;;;5134281;27;20401;-68
2021/05/14 01:27:02;;;;;;;2.97;1.45;;;;;;;;;;5133325;27;20050;-68
2021/05/14 01:29:28;;;;;;;2.67;1.70;;;;;;;;;;5125393;27;20051;-68
2021/05/14 01:31:55;;;;;;;3.42;1.45;;;;;;;;;;5133745;27;20103;-68
2021/05/14 01:34:21;;;;;;;2.70;1.58;;;;;;;;;;5133176;27;20055;-68
2021/05/14 01:36:47;;;;;;;3.80;1.55;;;;;;;;;;5134738;27;20078;-68
2021/05/14 01:39:16;;;;;;;4.47;1.48;;;;;;;;;;5134725;27;20047;-68
2021/05/14 01:41:43;;;;;;;3.00;1.40;;;;;;;;;;5126889;27;20079;-68
2021/05/14 01:44:09;;;;;;;2.63;1.30;;;;;;;;;;5134597;27;20051;-68
2021/05/14 01:46:36;;;;;;;3.42;1.35;;;;;;;;;;5134496;27;20047;-68
2021/05/14 01:49:03;;;;;;;3.35;1.50;;;;;;;;;;5134274;28;20055;-68
2021/05/14 01:51:29;;;;;;;2.85;1.38;;;;;;;;;;5133543;28;20402;-68
2021/05/14 01:53:55;;;;;;;3.35;1.35;;;;;;;;;;5134070;28;20051;-68
2021/05/14 01:56:22;;;;;;;2.08;1.27;;;;;;;;;;5133916;28;20490;-68
2021/05/14 01:58:49;;;;;;;3.42;1.48;;;;;;;;;;5134342;28;20389;-68
2021/05/14 02:01:16;;;;;;;2.65;1.88;;;;;;;;;;5132641;28;20047;-68
2021/05/14 02:03:42;;;;;;;3.40;1.42;;;;;;;;;;5134033;28;20055;-68
2021/05/14 02:06:08;;;;;;;3.72;1.67;;;;;;;;;;5134113;27;20475;-68
2021/05/14 02:08:35;;;;;;;2.17;1.40;;;;;;;;;;5134418;28;20050;-68
2021/05/14 02:11:03;;;;;;;3.95;1.60;;;;;;;;;;5133183;27;20051;-68
2021/05/14 02:13:30;;;;;;;4.32;1.38;;;;;;;;;;5133731;28;20051;-68
2021/05/14 02:15:56;;;;;;;2.10;1.23;;;;;;;;;;5133701;28;20047;-68
2021/05/14 02:18:22;;;;;;;2.95;1.40;;;;;;;;;;5133767;28;20484;-68
2021/05/14 02:20:48;;;;;;;3.65;1.60;;;;;;;;;;5133960;28;20484;-68
2021/05/14 02:23:14;;;;;;;3.80;1.23;;;;;;;;;;5133320;28;20051;-68
2021/05/14 02:25:40;;;;;;;2.88;1.63;;;;;;;;;;5132837;27;20157;-68
2021/05/14 02:28:08;;;;;;;3.60;1.75;;;;;;;;;;5127988;28;20388;-68
2021/05/14 02:30:35;;;;;;;3.22;1.52;;;;;;;;;;5124957;28;20138;-68
2021/05/14 02:33:01;;;;;;;2.38;1.30;;;;;;;;;;5132859;28;20597;-68
2021/05/14 02:35:27;;;;;;;1.60;1.23;;;;;;;;;;5133957;28;20099;-68
2021/05/14 02:37:54;;;;;;;1.92;1.30;;;;;;;;;;5134087;27;20051;-68
2021/05/14 02:40:20;;;;;;;2.30;1.25;;;;;;;;;;5147401;27;20050;-68
2021/05/14 02:42:46;;;;;;;2.40;1.38;;;;;;;;;;5134959;27;20078;-68
2021/05/14 02:45:13;;;;;;;1.83;1.25;;;;;;;;;;5134590;27;20047;-68
2021/05/14 02:47:41;;;;;;;3.15;1.40;;;;;;;;;;5137816;27;20062;-68
2021/05/14 02:50:08;;;;;;;3.17;1.23;;;;;;;;;;5137344;27;20672;-68
2021/05/14 02:52:34;;;;;;;2.53;1.17;;;;;;;;;;5135940;27;20067;-68
2021/05/14 02:55:00;;;;;;;3.40;1.05;;;;;;;;;;5137295;27;20047;-68
2021/05/14 02:57:26;;;;;;;3.53;1.50;;;;;;;;;;5137556;27;20053;-68
2021/05/14 02:59:52;;;;;;;2.35;1.17;;;;;;;;;;5137354;27;20051;-68
2021/05/14 03:02:18;;;;;;;3.60;1.35;;;;;;;;;;5136237;27;20051;-68
2021/05/14 03:04:45;;;;;;;3.13;1.50;;;;;;;;;;5136706;27;20064;-68
2021/05/14 03:07:11;;;;;;;2.47;1.40;;;;;;;;;;5136919;27;20051;-68
2021/05/14 03:09:37;;;;;;;3.25;1.60;;;;;;;;;;5137197;27;20049;-68
2021/05/14 03:12:04;;;;;;;2.90;1.40;;;;;;;;;;5136679;27;20058;-69
2021/05/14 03:14:30;;;;;;;3.38;1.83;;;;;;;;;;5136897;27;20051;-68
2021/05/14 03:16:56;;;;;;;1.70;1.17;;;;;;;;;;5137083;27;20138;-68
2021/05/14 03:19:22;;;;;;;2.97;1.58;;;;;;;;;;5136849;27;20500;-68
2021/05/14 03:21:49;;;;;;;3.13;1.90;;;;;;;;;;5135556;27;20130;-68
2021/05/14 03:24:15;;;;;;;2.83;1.48;;;;;;;;;;5136662;27;20043;-68
2021/05/14 03:26:41;;;;;;;3.30;1.52;;;;;;;;;;5136666;27;20091;-68
2021/05/14 03:29:07;;;;;;;3.15;1.70;;;;;;;;;;5135102;27;20476;-68
2021/05/14 03:31:33;;;;;;;3.17;1.75;;;;;;;;;;5135462;27;20054;-68
2021/05/14 03:33:59;;;;;;;2.88;1.60;;;;;;;;;;5136623;27;20103;-68
2021/05/14 03:36:25;;;;;;;2.22;1.40;;;;;;;;;;5136586;27;20042;-68
2021/05/14 03:38:52;;;;;;;2.50;1.52;;;;;;;;;;5136865;27;20047;-68
2021/05/14 03:41:30;;;;;;;4.72;1.40;;;;;;;;;;5141859;27;20052;-68
2021/05/14 03:43:57;;;;;;;5.85;1.73;;;;;;;;;;5136724;27;20404;-68
2021/05/14 03:46:23;;;;;;;4.70;1.80;;;;;;;;;;5136389;27;20104;-68
2021/05/14 03:48:49;;;;;;;3.10;1.60;;;;;;;;;;5135974;27;20054;-68
2021/05/14 03:51:15;;;;;;;6.20;1.38;;;;;;;;;;5135209;27;20047;-68
2021/05/14 03:53:41;;;;;;;5.18;1.55;;;;;;;;;;5135652;27;20043;-68
2021/05/14 03:56:08;;;;;;;3.53;1.80;;;;;;;;;;5135711;27;20131;-68
2021/05/14 03:58:34;;;;;;;4.22;1.92;;;;;;;;;;5135836;27;20050;-68
2021/05/14 04:00:59;;;;;;;2.67;1.50;;;;;;;;;;5135371;27;20061;-68
2021/05/14 04:03:25;;;;;;;5.00;1.92;;;;;;;;;;5136274;27;20126;-68
2021/05/14 04:05:51;;;;;;;4.18;1.60;;;;;;;;;;5135902;27;20108;-67
2021/05/14 04:08:18;;;;;;;3.50;2.05;;;;;;;;;;5135795;27;20464;-67
2021/05/14 04:11:01;;;;;;;10.48;1.80;;;;;;;;;;5135401;27;20047;-67
2021/05/14 04:16:12;;;;;;;2.75;1.45;;;;;;;;;;5135597;27;20188;-68
2021/05/14 04:18:39;;;;;;;3.28;2.22;;;;;;;;;;5135741;27;20083;-68
2021/05/14 04:21:06;;;;;;;2.80;1.50;;;;;;;;;;5135049;27;20059;-68
2021/05/14 04:23:32;;;;;;;2.65;1.35;;;;;;;;;;5135112;27;20043;-68
2021/05/14 04:25:58;;;;;;;2.58;1.42;;;;;;;;;;5135428;27;20093;-68
2021/05/14 04:28:24;;;;;;;2.47;1.52;;;;;;;;;;5131214;27;20039;-68
2021/05/14 04:30:51;;;;;;;2.63;1.65;;;;;;;;;;5131969;27;20459;-68
2021/05/14 04:33:17;;;;;;;3.15;1.50;;;;;;;;;;5133816;27;20116;-68
2021/05/14 04:35:43;;;;;;;3.40;1.83;;;;;;;;;;5134179;27;20127;-68
2021/05/14 04:38:09;;;;;;;3.17;1.70;;;;;;;;;;5134931;27;20064;-69
2021/05/14 04:40:35;;;;;;;3.22;1.83;;;;;;;;;;5134862;27;20047;-69
2021/05/14 04:43:01;;;;;;;3.50;1.40;;;;;;;;;;5133475;27;20062;-69
2021/05/14 04:45:27;;;;;;;6.97;1.80;;;;;;;;;;5134618;27;20042;-68
2021/05/14 04:47:54;;;;;;;3.30;1.65;;;;;;;;;;5134004;27;20051;-68
2021/05/14 04:50:20;;;;;;;2.50;1.45;;;;;;;;;;5126484;27;20043;-69
2021/05/14 04:52:47;;;;;;;2.22;1.58;;;;;;;;;;5132604;27;20453;-69
2021/05/14 04:55:15;;;;;;;2.53;1.33;;;;;;;;;;5133491;27;20039;-69
2021/05/14 04:57:41;;;;;;;5.25;1.92;;;;;;;;;;5134701;27;20042;-69
2021/05/14 05:00:08;;;;;;;3.13;1.80;;;;;;;;;;5137455;27;20043;-69
2021/05/14 05:02:36;;;;;;;3.22;1.80;;;;;;;;;;5138103;27;20051;-69
2021/05/14 05:05:05;;;;;;;2.03;1.30;;;;;;;;;;5134579;27;20047;-68
2021/05/14 05:07:31;;;;;;;2.72;1.30;;;;;;;;;;5134938;27;20039;-68
2021/05/14 05:09:57;;;;;;;4.20;1.77;;;;;;;;;;5131438;27;20039;-69
2021/05/14 05:12:23;;;;;;;5.45;1.60;;;;;;;;;;5133719;27;20039;-68
2021/05/14 05:14:50;;;;;;;4.20;1.50;;;;;;;;;;5134650;27;20508;-68
2021/05/14 05:17:16;;;;;;;3.10;2.00;;;;;;;;;;5134419;27;20399;-69
2021/05/14 05:19:42;;;;;;;3.95;1.60;;;;;;;;;;5134779;27;20043;-68
2021/05/14 05:22:09;;;;;;;8.23;4.20;;;;;;;;;;5133901;27;20054;-69
2021/05/14 05:24:35;;;;;;;6.35;3.70;;;;;;;;;;5136452;27;20089;-69
2021/05/14 05:27:01;;;;;;;6.07;3.92;;;;;;;;;;5133916;27;20642;-69
2021/05/14 05:29:27;;;;;;;4.88;2.90;;;;;;;;;;5133753;27;20134;-69
2021/05/14 05:31:53;;;;;;;4.43;1.73;;;;;;;;;;5128867;27;20061;-69
2021/05/14 05:34:19;;;;;;;4.10;1.77;;;;;;;;;;5134569;27;20050;-69
2021/05/14 05:36:45;;;;;;;2.50;1.35;;;;;;;;;;5134786;27;20039;-69
2021/05/14 05:39:12;;;;;;;3.78;1.75;;;;;;;;;;5133918;27;20091;-68
2021/05/14 05:41:38;;;;;;;4.53;1.50;;;;;;;;;;5122595;27;20047;-69
2021/05/14 05:44:04;;;;;;;2.28;1.50;;;;;;;;;;5134548;27;20493;-68
2021/05/14 05:46:30;;;;;;;2.05;1.42;;;;;;;;;;5134001;27;20058;-69
2021/05/14 05:48:56;;;;;;;3.78;1.60;;;;;;;;;;5134332;28;20046;-69
2021/05/14 05:51:22;;;;;;;3.15;1.30;;;;;;;;;;5133438;28;20471;-69
2021/05/14 05:53:48;;;;;;;3.28;1.73;;;;;;;;;;5134504;28;20126;-69
2021/05/14 05:56:15;;;;;;;3.35;1.60;;;;;;;;;;5134627;28;20476;-69
2021/05/14 05:58:41;;;;;;;2.58;1.35;;;;;;;;;;5134310;28;20117;-69
2021/05/14 06:01:07;;;;;;;4.28;1.48;;;;;;;;;;5132904;28;20051;-69
2021/05/14 06:03:33;;;;;;;5.93;1.40;;;;;;;;;;5133954;28;20566;-68
2021/05/14 06:05:59;;;;;;;3.92;1.65;;;;;;;;;;5134591;28;20126;-68
2021/05/14 06:08:25;;;;;;;2.05;1.13;;;;;;;;;;5133931;28;20039;-68
2021/05/14 06:10:52;;;;;;;4.57;1.42;;;;;;;;;;5133095;28;20559;-68
2021/05/14 06:13:19;;;;;;;3.85;1.30;;;;;;;;;;5133742;28;20126;-69
2021/05/14 06:15:45;;;;;;;2.22;1.23;;;;;;;;;;5134259;28;20047;-69
2021/05/14 06:18:12;;;;;;;2.33;1.20;;;;;;;;;;5133766;28;20047;-69
2021/05/14 06:20:40;;;;;;;4.28;1.27;;;;;;;;;;5135621;27;20050;-68
2021/05/14 06:23:08;;;;;;;3.40;1.30;;;;;;;;;;5137212;27;20074;-68
2021/05/14 06:25:34;;;;;;;3.33;1.35;;;;;;;;;;5137800;27;20223;-68
2021/05/14 06:28:00;;;;;;;3.40;1.08;;;;;;;;;;5137598;27;20051;-68
2021/05/14 06:30:27;;;;;;;3.08;1.35;;;;;;;;;;5138515;27;20118;-68
2021/05/14 06:32:53;;;;;;;7.88;3.22;;;;;;;;;;5133879;27;20059;-68
2021/05/14 06:35:19;;;;;;;5.07;2.55;;;;;;;;;;5137482;27;20091;-68
2021/05/14 06:37:45;;;;;;;4.47;2.25;;;;;;;;;;5138317;27;20054;-68
2021/05/14 06:40:12;;;;;;;3.30;1.65;;;;;;;;;;5137785;27;20096;-68
2021/05/14 06:42:38;;;;;;;4.57;1.67;;;;;;;;;;5137209;27;20116;-67
2021/05/14 06:45:05;;;;;;;3.35;1.80;;;;;;;;;;5134588;27;20589;-67
2021/05/14 06:47:32;;;;;;;3.28;2.08;;;;;;;;;;5130893;27;20493;-68
2021/05/14 06:50:03;;;;;;;2.95;1.77;;;;;;;;;;5135651;27;20498;-69
2021/05/14 06:52:29;;;;;;;3.70;1.40;;;;;;;;;;5135393;27;20039;-67
2021/05/14 06:54:55;;;;;;;5.63;1.80;;;;;;;;;;5136286;27;20043;-67
2021/05/14 06:57:21;;;;;;;4.55;1.60;;;;;;;;;;5136494;27;20043;-69
2021/05/14 06:59:47;;;;;;;2.40;1.00;;;;;;;;;;5136086;27;20480;-68
2021/05/14 07:02:13;;;;;;;1.85;0.98;;;;;;;;;;5135516;27;20085;-68
2021/05/14 07:04:40;;;;;;;2.58;0.93;;;;;;;;;;5133703;27;20461;-69
2021/05/14 07:07:06;;;;;;;2.90;0.90;;;;;;;;;;5136361;27;20039;-68
2021/05/14 07:09:32;;;;;;;2.70;1.20;;;;;;;;;;5135912;27;20047;-69
2021/05/14 07:11:58;;;;;;;2.88;1.00;;;;;;;;;;5135605;27;20086;-69
2021/05/14 07:14:24;;;;;;;2.33;1.20;;;;;;;;;;5136248;27;20117;-69
2021/05/14 07:16:50;;;;;;;4.25;1.48;;;;;;;;;;5135999;27;20130;-69
2021/05/14 07:19:17;;;;;;;1.88;1.08;;;;;;;;;;5135018;27;20751;-69
2021/05/14 07:21:43;;;;;;;1.92;1.00;;;;;;;;;;5134982;27;20053;-68
2021/05/14 07:24:09;;;;;;;3.10;1.10;;;;;;;;;;5130156;27;20255;-68
2021/05/14 07:26:36;;;;;;;1.92;0.95;;;;;;;;;;5124376;27;20047;-68
2021/05/14 07:29:03;;;;;;;2.83;1.17;;;;;;;;;;5134175;27;20059;-68
2021/05/14 07:31:29;;;;;;;2.28;0.90;;;;;;;;;;5132695;27;20414;-69
2021/05/14 07:33:56;;;;;;;2.65;0.75;;;;;;;;;;5125274;27;20056;-68
2021/05/14 07:36:22;;;;;;;1.65;0.75;;;;;;;;;;5131820;27;20460;-68
2021/05/14 07:38:49;;;;;;;4.55;2.85;;;;;;;;;;5134450;27;20051;-68
2021/05/14 07:41:15;;;;;;;3.35;1.13;;;;;;;;;;5126489;27;20050;-70
2021/05/14 07:43:41;;;;;;;3.13;0.85;;;;;;;;;;5135213;27;20069;-68
2021/05/14 07:46:07;;;;;;;2.13;0.77;;;;;;;;;;5133806;27;20051;-69
2021/05/14 07:48:33;;;;;;;1.27;0.70;;;;;;;;;;5135013;27;20055;-69
2021/05/14 07:50:59;;;;;;;1.00;0.65;;;;;;;;;;5135637;27;20051;-69
2021/05/14 07:53:25;;;;;;;2.20;0.77;;;;;;;;;;5149630;27;20135;-69
2021/05/14 07:55:52;;;;;;;1.42;0.80;;;;;;;;;;5134409;27;20043;-70
2021/05/14 07:58:20;;;;;;;1.35;0.68;;;;;;;;;;5140948;27;20046;-70
2021/05/14 08:00:48;;;;;;;1.42;0.90;;;;;;;;;;5130409;27;20043;-68
2021/05/14 08:03:14;;;;;;;1.10;0.80;;;;;;;;;;5130388;27;20039;-68
2021/05/14 08:05:40;;;;;;;2.78;0.90;;;;;;;;;;5130224;27;20070;-69
2021/05/14 08:08:09;;;;;;;1.63;0.77;;;;;;;;;;5131298;27;20095;-69
2021/05/14 08:10:35;;;;;;;1.60;0.77;;;;;;;;;;5131255;27;20471;-68
2021/05/14 08:13:02;;;;;;;1.05;0.60;;;;;;;;;;5132644;27;20120;-69
2021/05/14 08:15:29;;;;;;;1.48;0.70;;;;;;;;;;5130538;27;20055;-69
2021/05/14 08:17:55;;;;;;;1.38;0.65;;;;;;;;;;5132143;27;20134;-68
2021/05/14 08:20:22;;;;;;;2.72;0.50;;;;;;;;;;5129922;27;20047;-70
2021/05/14 08:22:48;;;;;;;1.13;0.80;;;;;;;;;;5129364;27;20092;-70
2021/05/14 08:25:14;;;;;;;2.15;0.80;;;;;;;;;;5125403;27;20350;-70
2021/05/14 08:27:41;;;;;;;1.30;0.70;;;;;;;;;;5130923;27;20066;-70
2021/05/14 08:30:09;;;;;;;3.00;1.02;;;;;;;;;;5131508;27;20062;-70
2021/05/14 08:32:36;;;;;;;2.08;0.70;;;;;;;;;;5130169;27;20047;-70
2021/05/14 08:35:02;;;;;;;1.85;1.05;;;;;;;;;;5126970;27;20062;-70
2021/05/14 08:37:28;;;;;;;1.83;0.88;;;;;;;;;;5131539;27;21372;-70
2021/05/14 08:39:54;;;;;;;1.83;0.80;;;;;;;;;;5130490;27;20081;-69
2021/05/14 08:42:20;;;;;;;1.60;0.70;;;;;;;;;;5131994;27;20091;-70
2021/05/14 08:44:46;;;;;;;1.20;0.70;;;;;;;;;;5132796;27;20047;-70
2021/05/14 08:47:13;;;;;;;2.67;0.65;;;;;;;;;;5128455;27;20436;-70
2021/05/14 08:49:39;;;;;;;3.15;0.80;;;;;;;;;;5130689;27;20083;-71
2021/05/14 08:52:09;;;;;;;1.75;0.88;;;;;;;;;;5131266;27;20556;-71
2021/05/14 08:54:35;;;;;;;1.83;0.60;;;;;;;;;;5133320;27;20050;-70
2021/05/14 08:57:02;;;;;;;1.73;0.60;;;;;;;;;;5132496;27;20475;-70
2021/05/14 08:59:28;;;;;;;1.27;0.40;;;;;;;;;;5132604;27;20119;-70
2021/05/14 09:01:54;;;;;;;2.03;0.70;;;;;;;;;;5133537;27;20043;-71
2021/05/14 09:04:21;;;;;;;0.88;0.40;;;;;;;;;;5132526;27;20043;-70
2021/05/14 09:06:47;;;;;;;1.30;0.43;;;;;;;;;;5132590;27;20039;-70
2021/05/14 09:09:14;;;;;;;1.08;0.47;;;;;;;;;;5133302;27;20051;-70
2021/05/14 09:11:42;;;;;;;1.20;0.50;;;;;;;;;;5130706;27;20844;-70
2021/05/14 09:14:35;;;;;;;1.20;0.57;;;;;;;;;;5123335;27;20078;-70
2021/05/14 09:17:06;;;;;;;4.35;0.50;;;;;;;;;;5133753;27;20050;-70
2021/05/14 09:19:35;;;;;;;1.15;0.50;;;;;;;;;;5130556;27;20039;-71
2021/05/14 09:22:12;;;;;;;2.30;0.70;;;;;;;;;;5136609;27;20095;-71
2021/05/14 09:24:39;;;;;;;1.55;0.60;;;;;;;;;;5134249;27;20096;-70
2021/05/14 09:27:26;;;;;;;1.92;0.65;;;;;;;;;;5121269;27;20519;-71
2021/05/14 09:29:52;;;;;;;2.15;1.02;;;;;;;;;;5126205;27;20046;-71
2021/05/14 09:32:19;;;;;;;2.05;0.77;;;;;;;;;;5124304;27;20482;-70
2021/05/14 09:34:49;;;;;;;3.65;0.60;;;;;;;;;;5129962;27;20047;-70
2021/05/14 09:37:15;;;;;;;2.80;0.50;;;;;;;;;;5130537;27;20501;-70
2021/05/14 09:39:41;;;;;;;0.65;0.30;;;;;;;;;;5132751;27;20051;-71
2021/05/14 09:42:07;;;;;;;1.40;0.40;;;;;;;;;;5133712;27;20395;-70
2021/05/14 09:44:33;;;;;;;1.30;0.45;;;;;;;;;;5134360;27;20047;-71
2021/05/14 09:46:59;;;;;;;0.45;0.35;;;;;;;;;;5132641;27;20413;-71
2021/05/14 09:49:28;;;;;;;0.82;0.50;;;;;;;;;;5132011;27;20051;-70
2021/05/14 09:51:55;;;;;;;2.10;0.52;;;;;;;;;;5130376;28;20078;-71
2021/05/14 09:54:24;;;;;;;2.47;0.52;;;;;;;;;;5131364;27;20050;-71
2021/05/14 09:57:18;;;;;;;1.38;0.50;;;;;;;;;;5132125;28;20047;-71
2021/05/14 09:59:45;;;;;;;1.55;0.55;;;;;;;;;;5130193;27;20043;-72
2021/05/14 10:02:21;;;;;;;1.60;0.35;;;;;;;;;;5131776;27;20397;-71
2021/05/14 10:04:48;;;;;;;0.40;0.30;;;;;;;;;;5132137;28;20497;-72
2021/05/14 10:07:15;;;;;;;0.88;0.40;;;;;;;;;;5134745;27;20045;-72
2021/05/14 10:09:41;;;;;;;0.75;0.50;;;;;;;;;;5134418;27;20100;-71
2021/05/14 10:12:08;;;;;;;0.77;0.43;;;;;;;;;;5134800;27;20159;-71
2021/05/14 10:14:34;;;;;;;1.63;0.45;;;;;;;;;;5130318;27;20043;-72
2021/05/14 10:17:01;;;;;;;0.93;0.32;;;;;;;;;;5130956;28;20096;-70
2021/05/14 10:19:28;;;;;;;0.85;0.30;;;;;;;;;;5130961;27;20128;-71
2021/05/14 10:21:54;;;;;;;1.17;0.40;;;;;;;;;;5130842;27;20073;-70
2021/05/14 10:24:41;;;;;;;2.40;0.40;;;;;;;;;;5132946;27;20108;-70
2021/05/14 10:27:15;;;;;;;0.73;0.32;;;;;;;;;;5130400;28;20055;-71
2021/05/14 10:29:42;;;;;;;0.47;0.32;;;;;;;;;;5130365;28;20479;-71
2021/05/14 10:32:09;;;;;;;0.50;0.30;;;;;;;;;;5130894;28;20051;-71
2021/05/14 10:34:35;;;;;;;0.82;0.28;;;;;;;;;;5128923;28;20088;-69
2021/05/14 10:37:01;;;;;;;1.23;0.60;;;;;;;;;;5127614;27;20134;-70
2021/05/14 10:39:35;;;;;;;0.57;0.30;;;;;;;;;;5130132;27;20083;-69
2021/05/14 10:42:06;;;;;;;1.60;0.40;;;;;;;;;;5126006;28;20043;-71
2021/05/14 10:44:46;;;;;;;0.77;0.30;;;;;;;;;;5127456;28;20047;-69
2021/05/14 10:47:45;;;;;;;0.28;0.22;;;;;;;;;;5129313;27;20134;-69
2021/05/14 10:50:37;;;;;;;0.68;0.30;;;;;;;;;;5102240;28;20138;-69
2021/05/14 10:53:36;;;;;;;0.80;0.50;;;;;;;;;;5126306;28;20088;-70
2021/05/14 10:56:25;;;;;;;2.33;0.40;;;;;;;;;;5128745;28;20075;-69
2021/05/14 10:58:53;;;;;;;2.83;0.50;;;;;;;;;;5129450;28;20147;-70
2021/05/14 11:01:31;;;;;;;0.40;0.28;;;;;;;;;;5130897;28;20415;-70
2021/05/14 11:03:57;;;;;;;0.32;0.15;;;;;;;;;;5130420;27;20048;-70
2021/05/14 11:06:24;;;;;;;1.80;0.40;;;;;;;;;;5130903;27;20051;-70
2021/05/14 11:09:03;;;;;;;1.92;0.43;;;;;;;;;;5134025;27;20054;-71
2021/05/14 11:11:29;;;;;;;0.70;0.40;;;;;;;;;;5133442;27;20458;-70
2021/05/14 11:13:56;;;;;;;0.70;0.15;;;;;;;;;;5133813;27;20463;-70
2021/05/14 11:16:37;;;;;;;0.25;0.17;;;;;;;;;;5133637;27;20520;-70
2021/05/14 11:19:15;;;;;;;0.70;0.20;;;;;;;;;;5133969;27;20043;-72
2021/05/14 11:22:13;;;;;;;1.23;0.30;;;;;;;;;;5131156;27;20141;-71
2021/05/14 11:25:03;;;;;;;0.40;0.25;;;;;;;;;;5137749;27;20062;-71
2021/05/14 11:27:30;;;;;;;0.75;0.32;;;;;;;;;;5115673;27;20746;-71
2021/05/14 11:29:59;;;;;;;1.35;0.35;;;;;;;;;;5131894;27;20054;-70
2021/05/14 11:32:34;;;;;;;0.57;0.28;;;;;;;;;;5134689;27;20423;-70
2021/05/14 11:35:03;;;;;;;0.45;0.20;;;;;;;;;;5131355;27;20159;-70
2021/05/14 11:37:31;;;;;;;0.63;0.10;;;;;;;;;;5129629;27;20492;-72
2021/05/14 11:39:58;;;;;;;0.57;0.28;;;;;;;;;;5129515;27;20047;-71
2021/05/14 11:42:26;;;;;;;0.47;0.20;;;;;;;;;;5129548;27;20051;-71
2021/05/14 11:45:00;;;;;;;1.13;0.20;;;;;;;;;;5131972;27;20059;-72
2021/05/14 11:47:28;;;;;;;1.17;0.30;;;;;;;;;;5131616;27;20129;-70
2021/05/14 11:49:55;;;;;;;1.02;0.30;;;;;;;;;;5130411;27;20089;-70
2021/05/14 11:52:35;;;;;;;0.25;0.10;;;;;;;;;;5133837;27;20093;-69
2021/05/14 11:55:07;;;;;;;0.22;0.08;;;;;;;;;;5131637;27;20044;-70
2021/05/14 11:57:33;;;;;;;0.57;0.35;;;;;;;;;;5128050;27;20050;-70
2021/05/14 12:00:00;;;;;;;0.77;0.45;;;;;;;;;;5136754;27;20050;-72
2021/05/14 12:02:38;;;;;;;1.25;0.60;;;;;;;;;;5131397;27;20043;-70
2021/05/14 12:05:05;;;;;;;0.73;0.30;;;;;;;;;;5134574;27;20127;-70
2021/05/14 12:07:32;;;;;;;0.88;0.43;;;;;;;;;;5132338;27;20108;-70
2021/05/14 12:09:59;;;;;;;0.57;0.22;;;;;;;;;;5133045;27;20046;-70
2021/05/14 12:12:25;;;;;;;1.27;0.30;;;;;;;;;;5131794;27;20051;-69
2021/05/14 12:14:52;;;;;;;0.80;0.22;;;;;;;;;;5132462;27;20063;-69
2021/05/14 12:17:19;;;;;;;1.33;0.13;;;;;;;;;;5131381;27;20039;-70
2021/05/14 12:19:48;;;;;;;1.52;0.40;;;;;;;;;;5133862;27;20534;-70
2021/05/14 12:22:14;;;;;;;0.80;0.50;;;;;;;;;;5134144;27;20046;-69
2021/05/14 12:24:40;;;;;;;0.93;0.28;;;;;;;;;;5133648;27;20066;-68
2021/05/14 12:27:10;;;;;;;1.27;0.28;;;;;;;;;;5133775;27;20051;-70
2021/05/14 12:29:36;;;;;;;2.67;0.73;;;;;;;;;;5134245;27;20042;-71
2021/05/14 12:32:04;;;;;;;3.67;0.55;;;;;;;;;;5135018;27;20112;-69
2021/05/14 12:34:31;;;;;;;1.98;0.52;;;;;;;;;;5134762;27;20475;-67
2021/05/14 12:36:58;;;;;;;3.40;0.65;;;;;;;;;;5131232;27;20096;-69
2021/05/14 12:39:24;;;;;;;1.45;0.43;;;;;;;;;;5118145;27;20063;-69
2021/05/14 12:41:56;;;;;;;1.35;0.50;;;;;;;;;;5127909;27;20494;-68
2021/05/14 12:44:24;;;;;;;0.47;0.25;;;;;;;;;;5118573;27;20130;-68
2021/05/14 12:47:05;;;;;;;0.88;0.30;;;;;;;;;;5133662;27;20079;-69
2021/05/14 12:49:33;;;;;;;1.63;0.50;;;;;;;;;;5134013;27;20134;-68
2021/05/14 12:52:03;;;;;;;0.93;0.30;;;;;;;;;;5134199;27;20042;-68
2021/05/14 12:54:30;;;;;;;3.67;0.50;;;;;;;;;;5134095;27;20452;-67
2021/05/14 12:56:56;;;;;;;0.93;0.38;;;;;;;;;;5133668;27;20126;-69
2021/05/14 12:59:22;;;;;;;0.65;0.40;;;;;;;;;;5134781;27;20051;-70
2021/05/14 13:01:49;;;;;;;0.80;0.25;;;;;;;;;;5133349;27;20047;-70
2021/05/14 13:04:15;;;;;;;0.85;0.43;;;;;;;;;;5133855;27;20051;-68
2021/05/14 13:06:42;;;;;;;1.30;0.30;;;;;;;;;;5133700;27;20054;-69
2021/05/14 13:09:09;;;;;;;0.70;0.20;;;;;;;;;;5133664;27;20065;-69
2021/05/14 13:11:37;;;;;;;1.52;0.40;;;;;;;;;;5131680;27;20047;-69
2021/05/14 13:14:04;;;;;;;0.90;0.40;;;;;;;;;;5133149;27;20051;-70
2021/05/14 13:16:30;;;;;;;1.27;0.30;;;;;;;;;;5133938;27;20043;-69
2021/05/14 13:18:57;;;;;;;0.63;0.20;;;;;;;;;;5133605;27;20077;-69
2021/05/14 13:21:23;;;;;;;2.70;0.50;;;;;;;;;;5134994;27;20054;-71
2021/05/14 13:23:50;;;;;;;0.50;0.22;;;;;;;;;;5133366;27;20410;-72
2021/05/14 13:26:17;;;;;;;1.17;0.20;;;;;;;;;;5133879;27;20043;-70
2021/05/14 13:28:44;;;;;;;1.02;0.47;;;;;;;;;;5133452;27;20046;-69
2021/05/14 13:31:11;;;;;;;2.28;0.70;;;;;;;;;;5132951;27;20499;-69
2021/05/14 13:33:37;;;;;;;1.25;0.55;;;;;;;;;;5134583;27;20051;-69
2021/05/14 13:36:03;;;;;;;2.65;0.70;;;;;;;;;;5134044;27;20122;-72
2021/05/14 13:38:29;;;;;;;1.40;0.50;;;;;;;;;;5131876;27;20383;-69
2021/05/14 13:40:56;;;;;;;1.55;0.45;;;;;;;;;;5119211;27;20047;-69
2021/05/14 13:43:22;;;;;;;1.70;0.50;;;;;;;;;;5122910;27;20100;-70
2021/05/14 13:45:48;;;;;;;2.88;0.73;;;;;;;;;;5133183;27;20084;-70
2021/05/14 13:48:15;;;;;;;1.65;0.68;;;;;;;;;;5133318;27;20055;-69
2021/05/14 13:50:41;;;;;;;3.03;0.80;;;;;;;;;;5133681;27;20403;-70
2021/05/14 13:53:07;;;;;;;1.83;0.60;;;;;;;;;;5133545;28;20079;-70
2021/05/14 13:55:33;;;;;;;1.65;0.35;;;;;;;;;;5134138;28;20062;-70
2021/05/14 13:58:00;;;;;;;1.42;0.50;;;;;;;;;;5133229;28;20398;-70
2021/05/14 14:00:26;;;;;;;2.55;0.38;;;;;;;;;;5133780;28;20051;-71
2021/05/14 14:02:52;;;;;;;0.75;0.32;;;;;;;;;;5132528;28;20054;-69
2021/05/14 14:05:18;;;;;;;1.23;0.50;;;;;;;;;;5133237;28;20467;-70
2021/05/14 14:07:44;;;;;;;2.30;0.50;;;;;;;;;;5133502;28;20058;-69
2021/05/14 14:10:11;;;;;;;2.70;0.60;;;;;;;;;;5133630;28;20047;-69
2021/05/14 14:12:38;;;;;;;1.08;0.60;;;;;;;;;;5133968;28;20043;-71
2021/05/14 14:15:09;;;;;;;2.60;0.95;;;;;;;;;;5133608;28;20058;-71
2021/05/14 14:17:35;;;;;;;0.60;0.50;;;;;;;;;;5133249;28;20128;-71
2021/05/14 14:20:01;;;;;;;0.90;0.28;;;;;;;;;;5133454;28;20051;-72
2021/05/14 14:22:27;;;;;;;1.65;0.50;;;;;;;;;;5133272;28;20051;-70
2021/05/14 14:24:53;;;;;;;1.23;0.60;;;;;;;;;;5133094;28;20183;-70
2021/05/14 14:27:21;;;;;;;1.75;0.40;;;;;;;;;;5133301;28;20400;-70
2021/05/14 14:29:47;;;;;;;1.38;0.60;;;;;;;;;;5133976;28;20043;-70
2021/05/14 14:32:15;;;;;;;2.33;0.85;;;;;;;;;;5132998;28;20066;-70
2021/05/14 14:34:41;;;;;;;2.78;0.65;;;;;;;;;;5112768;28;20051;-69
2021/05/14 14:37:07;;;;;;;1.05;0.55;;;;;;;;;;5113325;28;20079;-71
2021/05/14 14:39:33;;;;;;;2.50;0.52;;;;;;;;;;5119398;28;20476;-71
2021/05/14 14:41:59;;;;;;;1.55;0.40;;;;;;;;;;5133317;27;20448;-69
2021/05/14 14:44:25;;;;;;;2.10;0.90;;;;;;;;;;5137170;27;20054;-70
2021/05/14 14:46:51;;;;;;;1.15;0.68;;;;;;;;;;5138270;27;20454;-69
2021/05/14 14:49:18;;;;;;;6.50;1.13;;;;;;;;;;5138506;27;20108;-71